Terminal Aerodrome Forecast
Issued by NWS

Current Version | Previous Version | Graphics & Text | Print | Product List | Glossary On
Versions: 1 2 3 4 5 6 7 8 9 10 11 12 13 14 15 16 17 18 19 20 21 22 23 24 25 26 27 28 29 30 31 32 33 34 35 36 37 38 39
000
FTUS41 KRNK 020536 CCA
TAFLWB
TAF COR
KLWB 020536Z 0206/0306 00000KT P6SM BKN004
     FM020900 00000KT 1/4SM FG OVC002
     FM021500 00000KT P6SM OVC025
     FM022000 27004KT P6SM -SHRA VCTS BKN015CB OVC035
     FM030200 03003KT 4SM BR BKN007 OVC012=

USA.gov is the U.S. government's official web portal to all federal, state and local government web resources and services.